Time;durP1;ratioP1;P1;durP2;ratioP2;P2;SDS_P1;SDS_P2;PMS_P1;PMS_P2;Temp;Humidity;BMP_temperature;BMP_pressure;BME280_temperature;BME280_humidity;BME280_pressure;Samples;Min_cycle;Max_cycle;Signal;HPM_P1;HPM_P2
2021/05/23 00:01:37;;;;;;;10.13;2.70;;;;;;;;;;5109997;28;20073;-74
2021/05/23 00:04:03;;;;;;;14.65;3.20;;;;;;;;;;5119336;27;20058;-75
2021/05/23 00:06:30;;;;;;;14.52;2.83;;;;;;;;;;5108405;28;20042;-75
2021/05/23 00:08:56;;;;;;;11.70;2.83;;;;;;;;;;5110340;28;20039;-74
2021/05/23 00:11:22;;;;;;;13.32;2.83;;;;;;;;;;5111994;28;20064;-74
2021/05/23 00:13:49;;;;;;;19.77;2.70;;;;;;;;;;5134949;27;20121;-74
2021/05/23 00:16:18;;;;;;;17.75;3.97;;;;;;;;;;5108664;28;20118;-74
2021/05/23 00:18:46;;;;;;;9.57;3.22;;;;;;;;;;5110551;28;20039;-74
2021/05/23 00:21:13;;;;;;;12.65;3.00;;;;;;;;;;5143737;27;20051;-74
2021/05/23 00:23:39;;;;;;;15.15;3.22;;;;;;;;;;5108019;28;20395;-74
2021/05/23 00:26:05;;;;;;;12.95;3.00;;;;;;;;;;5100990;28;20048;-74
2021/05/23 00:28:32;;;;;;;15.07;3.45;;;;;;;;;;5108539;28;20036;-74
2021/05/23 00:30:59;;;;;;;12.10;3.30;;;;;;;;;;5108701;28;20059;-75
2021/05/23 00:33:25;;;;;;;19.25;3.75;;;;;;;;;;5140463;27;20059;-74
2021/05/23 00:35:52;;;;;;;13.45;3.20;;;;;;;;;;5098169;28;20041;-74
2021/05/23 00:38:18;;;;;;;9.80;2.92;;;;;;;;;;5109020;28;20043;-75
2021/05/23 00:40:44;;;;;;;15.18;4.07;;;;;;;;;;5109814;28;20044;-74
2021/05/23 00:43:15;;;;;;;16.13;3.50;;;;;;;;;;5110528;28;20119;-75
2021/05/23 00:45:41;;;;;;;16.65;3.95;;;;;;;;;;5106621;28;20150;-74
2021/05/23 00:48:08;;;;;;;15.52;3.53;;;;;;;;;;5111197;28;20096;-75
2021/05/23 00:50:35;;;;;;;21.35;3.83;;;;;;;;;;5111954;28;20051;-74
2021/05/23 00:53:02;;;;;;;13.98;3.40;;;;;;;;;;5111787;28;20036;-74
2021/05/23 00:55:28;;;;;;;9.98;3.35;;;;;;;;;;5114921;28;20039;-74
2021/05/23 00:57:54;;;;;;;15.38;3.80;;;;;;;;;;5112569;28;20032;-74
2021/05/23 01:00:33;;;;;;;11.38;3.42;;;;;;;;;;5112665;28;20035;-74
2021/05/23 01:03:01;;;;;;;13.95;3.40;;;;;;;;;;5132344;27;20046;-74
2021/05/23 01:05:27;;;;;;;15.85;3.20;;;;;;;;;;5101741;28;20474;-74
2021/05/23 01:07:54;;;;;;;15.15;3.50;;;;;;;;;;5094166;28;20050;-74
2021/05/23 01:10:21;;;;;;;16.33;4.03;;;;;;;;;;5115344;28;20101;-74
2021/05/23 01:13:01;;;;;;;15.40;3.65;;;;;;;;;;5110101;28;20032;-74
2021/05/23 01:15:28;;;;;;;17.52;3.50;;;;;;;;;;5113545;28;20070;-74
2021/05/23 01:17:55;;;;;;;9.35;2.95;;;;;;;;;;5147933;27;20047;-74
2021/05/23 01:20:35;;;;;;;14.82;4.22;;;;;;;;;;5115086;28;20651;-74
2021/05/23 01:23:07;;;;;;;11.63;3.17;;;;;;;;;;5107903;28;20043;-74
2021/05/23 01:25:33;;;;;;;16.83;3.63;;;;;;;;;;5107701;28;20050;-74
2021/05/23 01:28:00;;;;;;;6.63;3.22;;;;;;;;;;5113124;28;20429;-74
2021/05/23 01:30:28;;;;;;;12.25;2.88;;;;;;;;;;5114311;28;20073;-74
2021/05/23 01:33:01;;;;;;;9.95;2.85;;;;;;;;;;5104525;28;20051;-74
2021/05/23 01:35:32;;;;;;;10.88;2.90;;;;;;;;;;5135777;27;20040;-74
2021/05/23 01:38:00;;;;;;;13.75;3.45;;;;;;;;;;5103179;28;20114;-74
2021/05/23 01:40:27;;;;;;;12.38;3.40;;;;;;;;;;5110181;28;20044;-75
2021/05/23 01:42:54;;;;;;;12.45;4.15;;;;;;;;;;5107681;28;20051;-74
2021/05/23 01:45:21;;;;;;;10.73;3.65;;;;;;;;;;5112942;27;20063;-74
2021/05/23 01:47:47;;;;;;;11.05;3.05;;;;;;;;;;5107610;28;20043;-74
2021/05/23 01:50:13;;;;;;;9.85;3.45;;;;;;;;;;5110782;28;20410;-74
2021/05/23 01:52:50;;;;;;;15.27;4.00;;;;;;;;;;5113723;28;20067;-74
2021/05/23 01:55:17;;;;;;;10.80;3.45;;;;;;;;;;5145141;27;20035;-74
2021/05/23 01:57:43;;;;;;;10.02;2.97;;;;;;;;;;5112331;28;20043;-74
2021/05/23 02:00:10;;;;;;;10.95;3.40;;;;;;;;;;5111891;28;20047;-74
2021/05/23 02:02:37;;;;;;;17.83;3.78;;;;;;;;;;5110802;28;20042;-74
2021/05/23 02:05:06;;;;;;;15.52;4.30;;;;;;;;;;5111012;28;20118;-74
2021/05/23 02:07:32;;;;;;;12.68;3.72;;;;;;;;;;5145408;27;20036;-74
2021/05/23 02:09:58;;;;;;;11.35;3.90;;;;;;;;;;5123890;27;20395;-74
2021/05/23 02:12:25;;;;;;;12.20;3.92;;;;;;;;;;5085355;28;20040;-74
2021/05/23 02:14:52;;;;;;;16.10;4.30;;;;;;;;;;5103959;28;20123;-74
2021/05/23 02:17:18;;;;;;;11.60;3.83;;;;;;;;;;5106567;28;20040;-74
2021/05/23 02:19:45;;;;;;;13.43;4.20;;;;;;;;;;5112905;28;20085;-74
2021/05/23 02:22:11;;;;;;;11.43;3.67;;;;;;;;;;5110747;28;20084;-74
2021/05/23 02:24:37;;;;;;;10.77;3.78;;;;;;;;;;5144757;27;20096;-74
2021/05/23 02:27:04;;;;;;;12.45;3.65;;;;;;;;;;5088170;28;20055;-74
2021/05/23 02:29:33;;;;;;;14.93;4.10;;;;;;;;;;5143860;27;20116;-74
2021/05/23 02:32:00;;;;;;;11.13;4.15;;;;;;;;;;5103720;28;20035;-74
2021/05/23 02:34:27;;;;;;;13.35;4.30;;;;;;;;;;5138629;27;20081;-74
2021/05/23 02:36:54;;;;;;;11.63;4.00;;;;;;;;;;5103935;28;20051;-74
2021/05/23 02:39:21;;;;;;;14.25;4.78;;;;;;;;;;5112340;28;20084;-74
2021/05/23 02:41:49;;;;;;;15.15;4.57;;;;;;;;;;5113993;28;20040;-74
2021/05/23 02:44:15;;;;;;;14.40;4.20;;;;;;;;;;5111550;28;20081;-74
2021/05/23 02:46:42;;;;;;;11.05;4.05;;;;;;;;;;5111876;28;20032;-74
2021/05/23 02:49:15;;;;;;;12.85;4.05;;;;;;;;;;5111739;28;20047;-74
2021/05/23 02:51:42;;;;;;;12.82;4.18;;;;;;;;;;5112744;28;20057;-74
2021/05/23 02:54:08;;;;;;;14.82;3.97;;;;;;;;;;5109116;28;20051;-74
2021/05/23 02:56:35;;;;;;;16.77;4.47;;;;;;;;;;5112947;28;20031;-75
2021/05/23 02:59:01;;;;;;;16.63;3.95;;;;;;;;;;5112586;28;20392;-74
2021/05/23 03:01:27;;;;;;;12.50;4.22;;;;;;;;;;5090172;28;20372;-74
2021/05/23 03:03:54;;;;;;;16.48;4.32;;;;;;;;;;5130898;27;20083;-74
2021/05/23 03:06:20;;;;;;;19.40;4.60;;;;;;;;;;5111929;28;20043;-74
2021/05/23 03:08:47;;;;;;;12.88;4.93;;;;;;;;;;5144852;27;20122;-74
2021/05/23 03:11:13;;;;;;;14.43;5.25;;;;;;;;;;5101129;28;20083;-74
2021/05/23 03:13:39;;;;;;;16.92;5.10;;;;;;;;;;5111458;28;20479;-74
2021/05/23 03:16:05;;;;;;;12.65;4.63;;;;;;;;;;5140085;27;20051;-74
2021/05/23 03:18:31;;;;;;;18.92;4.82;;;;;;;;;;5110383;28;20040;-74
2021/05/23 03:20:58;;;;;;;13.55;4.93;;;;;;;;;;5144544;27;20154;-74
2021/05/23 03:23:24;;;;;;;13.30;4.47;;;;;;;;;;5138271;27;20044;-74
2021/05/23 03:25:50;;;;;;;16.30;5.30;;;;;;;;;;5112661;28;20038;-74
2021/05/23 03:28:17;;;;;;;14.50;4.35;;;;;;;;;;5109517;28;20428;-74
2021/05/23 03:30:43;;;;;;;16.13;4.53;;;;;;;;;;5135758;27;20253;-74
2021/05/23 03:33:10;;;;;;;15.57;4.80;;;;;;;;;;5109922;28;20073;-74
2021/05/23 03:35:37;;;;;;;14.02;4.43;;;;;;;;;;5145080;27;20129;-74
2021/05/23 03:38:04;;;;;;;19.20;5.05;;;;;;;;;;5109496;28;20035;-74
2021/05/23 03:40:31;;;;;;;13.10;4.63;;;;;;;;;;5110845;28;20474;-74
2021/05/23 03:42:58;;;;;;;13.25;4.13;;;;;;;;;;5130817;27;20097;-74
2021/05/23 03:45:24;;;;;;;16.52;4.43;;;;;;;;;;5108987;28;20127;-74
2021/05/23 03:47:51;;;;;;;14.38;4.47;;;;;;;;;;5111184;28;20092;-74
2021/05/23 03:50:19;;;;;;;9.68;4.13;;;;;;;;;;5110947;28;20047;-74
2021/05/23 03:52:46;;;;;;;16.38;5.43;;;;;;;;;;5112395;28;20044;-74
2021/05/23 03:55:12;;;;;;;13.15;4.88;;;;;;;;;;5142011;27;20058;-74
2021/05/23 03:57:39;;;;;;;16.92;5.10;;;;;;;;;;5093061;28;20027;-74
2021/05/23 04:00:06;;;;;;;19.35;4.93;;;;;;;;;;5104227;28;20039;-74
2021/05/23 04:02:32;;;;;;;21.85;6.15;;;;;;;;;;5109747;28;20115;-74
2021/05/23 04:04:58;;;;;;;11.98;4.88;;;;;;;;;;5139330;27;20039;-74
2021/05/23 04:07:26;;;;;;;15.13;5.15;;;;;;;;;;5136670;27;20519;-74
2021/05/23 04:09:53;;;;;;;15.85;5.20;;;;;;;;;;5111746;28;20479;-74
2021/05/23 04:14:51;;;;;;;16.08;5.35;;;;;;;;;;5110312;28;20040;-74
2021/05/23 04:17:18;;;;;;;16.33;5.38;;;;;;;;;;5112564;28;20092;-74
2021/05/23 04:19:44;;;;;;;13.70;5.15;;;;;;;;;;5084044;28;20079;-74
2021/05/23 04:22:10;;;;;;;14.20;5.30;;;;;;;;;;5110717;28;20043;-74
2021/05/23 04:24:37;;;;;;;12.32;4.93;;;;;;;;;;5106706;28;20040;-74
2021/05/23 04:27:04;;;;;;;14.38;5.35;;;;;;;;;;5111100;28;20119;-74
2021/05/23 04:29:31;;;;;;;16.50;5.03;;;;;;;;;;5109202;28;20051;-74
2021/05/23 04:31:59;;;;;;;13.38;5.18;;;;;;;;;;5111518;28;20046;-74
2021/05/23 04:34:26;;;;;;;12.60;4.97;;;;;;;;;;5143603;27;20058;-74
2021/05/23 04:36:53;;;;;;;18.33;6.22;;;;;;;;;;5110530;28;20050;-74
2021/05/23 04:39:19;;;;;;;12.85;4.82;;;;;;;;;;5109749;28;20043;-74
2021/05/23 04:41:45;;;;;;;18.77;5.40;;;;;;;;;;5101415;28;20047;-74
2021/05/23 04:44:11;;;;;;;11.40;4.32;;;;;;;;;;5092906;28;20071;-74
2021/05/23 04:46:37;;;;;;;17.58;4.63;;;;;;;;;;5111232;28;20103;-74
2021/05/23 04:49:04;;;;;;;12.07;4.82;;;;;;;;;;5111634;28;20110;-74
2021/05/23 04:51:30;;;;;;;11.38;4.78;;;;;;;;;;5092297;28;20043;-74
2021/05/23 04:53:56;;;;;;;15.68;4.75;;;;;;;;;;5111759;28;20534;-74
2021/05/23 04:56:22;;;;;;;12.55;4.47;;;;;;;;;;5111006;28;20067;-74
2021/05/23 04:58:48;;;;;;;14.70;5.10;;;;;;;;;;5103105;28;20064;-74
2021/05/23 05:01:14;;;;;;;18.58;5.05;;;;;;;;;;5110453;28;20085;-74
2021/05/23 05:03:41;;;;;;;13.10;4.57;;;;;;;;;;5091536;28;20044;-74
2021/05/23 05:06:07;;;;;;;14.73;4.50;;;;;;;;;;5094676;28;20482;-74
2021/05/23 05:08:33;;;;;;;12.13;4.72;;;;;;;;;;5092191;28;20047;-75
2021/05/23 05:10:59;;;;;;;11.07;4.80;;;;;;;;;;5110064;28;20039;-74
2021/05/23 05:13:25;;;;;;;8.73;3.97;;;;;;;;;;5133575;27;20051;-74
2021/05/23 05:15:52;;;;;;;10.85;4.57;;;;;;;;;;5079990;28;20043;-74
2021/05/23 05:18:18;;;;;;;15.10;4.57;;;;;;;;;;5104116;28;20526;-74
2021/05/23 05:20:44;;;;;;;15.73;4.88;;;;;;;;;;5138081;27;20051;-75
2021/05/23 05:23:10;;;;;;;14.13;4.63;;;;;;;;;;5144497;27;20050;-74
2021/05/23 05:25:37;;;;;;;10.13;3.90;;;;;;;;;;5105905;28;20051;-75
2021/05/23 05:28:04;;;;;;;11.90;4.00;;;;;;;;;;5110960;28;20032;-74
2021/05/23 05:30:30;;;;;;;12.32;3.42;;;;;;;;;;5108023;28;20032;-76
2021/05/23 05:32:56;;;;;;;15.88;3.92;;;;;;;;;;5139860;27;20044;-75
2021/05/23 05:35:23;;;;;;;12.88;3.65;;;;;;;;;;5111874;28;20069;-74
2021/05/23 05:37:49;;;;;;;9.20;3.50;;;;;;;;;;5122204;27;20321;-74
2021/05/23 05:40:16;;;;;;;8.10;3.20;;;;;;;;;;5114544;27;20080;-74
2021/05/23 05:42:42;;;;;;;8.20;2.95;;;;;;;;;;5110657;27;20062;-74
2021/05/23 05:45:08;;;;;;;15.90;3.83;;;;;;;;;;5108196;27;20047;-74
2021/05/23 05:47:34;;;;;;;;;;;;;;;;;;5139549;27;20401;-75
2021/05/23 05:50:00;;;;;;;;;;;;;;;;;;5113364;27;19919;-74
2021/05/23 05:52:27;;;;;;;11.60;3.60;;;;;;;;;;5106207;28;19919;-74
2021/05/23 05:54:53;;;;;;;11.15;3.88;;;;;;;;;;5110123;27;20410;-74
2021/05/23 05:57:19;;;;;;;11.60;4.10;;;;;;;;;;5109569;27;20420;-74
2021/05/23 05:59:46;;;;;;;11.88;3.92;;;;;;;;;;5097487;27;20450;-75
2021/05/23 06:02:12;;;;;;;9.18;2.95;;;;;;;;;;5104682;27;20432;-74
2021/05/23 06:04:38;;;;;;;9.45;3.67;;;;;;;;;;5131131;27;20422;-75
2021/05/23 06:07:04;;;;;;;9.40;3.00;;;;;;;;;;5129441;27;20538;-74
2021/05/23 06:09:30;;;;;;;;;;;;;;;;;;5100494;27;20289;-74
2021/05/23 06:11:56;;;;;;;;;;;;;;;;;;5103515;27;19931;-74
2021/05/23 06:14:22;;;;;;;;;;;;;;;;;;5109154;28;19920;-75
2021/05/23 06:16:48;;;;;;;;;;;;;;;;;;5110354;27;19920;-75
2021/05/23 06:19:15;;;;;;;;;;;;;;;;;;5102774;27;19975;-75
2021/05/23 06:21:41;;;;;;;;;;;;;;;;;;5108742;27;19919;-75
2021/05/23 06:24:07;;;;;;;;;;;;;;;;;;5112368;28;19923;-75
2021/05/23 06:26:33;;;;;;;;;;;;;;;;;;5108875;28;19945;-76
2021/05/23 06:28:59;;;;;;;;;;;;;;;;;;5110381;28;19924;-76
2021/05/23 06:31:25;;;;;;;;;;;;;;;;;;5112382;28;19924;-76
2021/05/23 06:33:51;;;;;;;;;;;;;;;;;;5109652;28;20042;-77
2021/05/23 06:36:17;;;;;;;;;;;;;;;;;;5108558;28;19966;-76
2021/05/23 06:38:44;;;;;;;;;;;;;;;;;;5108977;28;19923;-74
2021/05/23 06:41:10;;;;;;;;;;;;;;;;;;5112544;27;19920;-75
2021/05/23 06:43:36;;;;;;;;;;;;;;;;;;5111867;27;19919;-75
2021/05/23 06:46:02;;;;;;;;;;;;;;;;;;5112476;27;19920;-76
2021/05/23 06:48:28;;;;;;;;;;;;;;;;;;5109731;27;19992;-75
2021/05/23 06:50:54;;;;;;;;;;;;;;;;;;5109846;27;19972;-75
2021/05/23 06:53:20;;;;;;;;;;;;;;;;;;5108266;28;19924;-75
2021/05/23 06:55:46;;;;;;;8.63;3.00;;;;;;;;;;5114439;27;20100;-75
2021/05/23 06:58:12;;;;;;;8.88;3.10;;;;;;;;;;5122798;27;20043;-75
2021/05/23 07:00:38;;;;;;;8.70;2.70;;;;;;;;;;5116614;27;20100;-78
2021/05/23 07:03:04;;;;;;;8.60;3.17;;;;;;;;;;5109494;27;20058;-79
2021/05/23 07:05:31;;;;;;;6.70;2.55;;;;;;;;;;5123135;27;20039;-76
2021/05/23 07:07:57;;;;;;;7.38;2.80;;;;;;;;;;5115297;27;20051;-75
2021/05/23 07:10:23;;;;;;;8.18;2.63;;;;;;;;;;5110373;27;20036;-80
2021/05/23 07:12:49;;;;;;;10.82;3.10;;;;;;;;;;5109386;28;20116;-77
2021/05/23 07:15:15;;;;;;;12.02;2.83;;;;;;;;;;5114237;27;20039;-77
2021/05/23 07:17:41;;;;;;;6.15;1.92;;;;;;;;;;5112963;28;20481;-77
2021/05/23 07:20:08;;;;;;;6.57;1.85;;;;;;;;;;5134472;27;20466;-77
2021/05/23 07:22:34;;;;;;;8.50;2.75;;;;;;;;;;5106092;28;20074;-77
2021/05/23 07:25:01;;;;;;;8.38;2.35;;;;;;;;;;5105661;28;20035;-77
2021/05/23 07:27:27;;;;;;;6.07;1.88;;;;;;;;;;5126243;27;20040;-77
2021/05/23 07:29:53;;;;;;;10.77;3.22;;;;;;;;;;5115785;27;20039;-77
2021/05/23 07:32:19;;;;;;;4.32;1.90;;;;;;;;;;5130777;27;20044;-77
2021/05/23 07:34:45;;;;;;;4.72;1.73;;;;;;;;;;5091864;28;20109;-77
2021/05/23 07:37:12;;;;;;;2.78;1.73;;;;;;;;;;5130837;27;20044;-77
2021/05/23 07:39:38;;;;;;;4.78;1.52;;;;;;;;;;5141315;27;20089;-77
2021/05/23 07:42:04;;;;;;;5.53;2.13;;;;;;;;;;5095398;28;20040;-77
2021/05/23 07:44:30;;;;;;;7.15;1.55;;;;;;;;;;5127962;27;20122;-77
2021/05/23 07:46:57;;;;;;;9.88;2.30;;;;;;;;;;5111305;28;20089;-77
2021/05/23 07:49:23;;;;;;;4.57;1.50;;;;;;;;;;5127788;27;20043;-77
2021/05/23 07:51:49;;;;;;;7.68;2.40;;;;;;;;;;5137496;27;20047;-78
2021/05/23 07:54:15;;;;;;;5.57;2.40;;;;;;;;;;5146243;27;20088;-77
2021/05/23 07:56:42;;;;;;;8.63;3.17;;;;;;;;;;5126754;27;20032;-77
2021/05/23 07:59:08;;;;;;;8.35;2.70;;;;;;;;;;5110432;28;20045;-77
2021/05/23 08:01:34;;;;;;;9.05;3.00;;;;;;;;;;5099001;28;20043;-77
2021/05/23 08:04:01;;;;;;;10.15;3.38;;;;;;;;;;5100276;28;20047;-78
2021/05/23 08:06:28;;;;;;;7.43;3.15;;;;;;;;;;5141808;27;20465;-77
2021/05/23 08:08:54;;;;;;;6.70;3.15;;;;;;;;;;5095750;28;20483;-77
2021/05/23 08:11:20;;;;;;;12.00;4.35;;;;;;;;;;5120319;27;20051;-77
2021/05/23 08:13:46;;;;;;;11.45;4.03;;;;;;;;;;5112607;28;20050;-77
2021/05/23 08:16:12;;;;;;;11.18;3.72;;;;;;;;;;5098775;28;20040;-77
2021/05/23 08:18:39;;;;;;;15.50;4.68;;;;;;;;;;5126574;27;20524;-77
2021/05/23 08:21:05;;;;;;;12.50;3.97;;;;;;;;;;5093580;28;20036;-77
2021/05/23 08:23:32;;;;;;;12.07;4.13;;;;;;;;;;5111960;28;20397;-77
2021/05/23 08:25:59;;;;;;;13.60;4.63;;;;;;;;;;5138654;27;20046;-77
2021/05/23 08:28:26;;;;;;;12.45;4.40;;;;;;;;;;5133707;27;20036;-77
2021/05/23 08:30:53;;;;;;;10.15;4.40;;;;;;;;;;5134813;27;20039;-78
2021/05/23 08:33:19;;;;;;;20.17;6.22;;;;;;;;;;5145220;27;20046;-77
2021/05/23 08:35:45;;;;;;;17.10;5.80;;;;;;;;;;5134994;27;20047;-77
2021/05/23 08:38:12;;;;;;;16.48;6.10;;;;;;;;;;5096509;28;20270;-77
2021/05/23 08:40:38;;;;;;;14.38;6.03;;;;;;;;;;5098185;28;20500;-77
2021/05/23 08:43:09;;;;;;;16.80;6.53;;;;;;;;;;5127126;28;20073;-77
2021/05/23 08:45:36;;;;;;;14.75;6.70;;;;;;;;;;5107969;28;20040;-76
2021/05/23 08:48:03;;;;;;;15.88;6.32;;;;;;;;;;5091096;28;20087;-76
2021/05/23 08:50:29;;;;;;;14.25;6.15;;;;;;;;;;5095891;28;20035;-77
2021/05/23 08:52:59;;;;;;;14.30;7.32;;;;;;;;;;5111644;28;20055;-77
2021/05/23 08:55:26;;;;;;;18.58;7.38;;;;;;;;;;5110878;28;20043;-76
2021/05/23 08:57:54;;;;;;;18.05;7.60;;;;;;;;;;5106409;28;20028;-77
2021/05/23 09:00:21;;;;;;;15.48;7.68;;;;;;;;;;5129982;27;20486;-76
2021/05/23 09:02:54;;;;;;;17.67;8.98;;;;;;;;;;5109049;28;20119;-76
2021/05/23 09:05:34;;;;;;;20.60;9.87;;;;;;;;;;5111095;28;20041;-77
2021/05/23 09:08:01;;;;;;;18.15;8.90;;;;;;;;;;5091264;28;20052;-77
2021/05/23 09:10:29;;;;;;;20.77;10.50;;;;;;;;;;5141510;27;20044;-77
2021/05/23 09:12:55;;;;;;;27.77;10.98;;;;;;;;;;5094814;28;20122;-77
2021/05/23 09:15:21;;;;;;;18.58;9.80;;;;;;;;;;5111637;27;20115;-77
2021/05/23 09:17:59;;;;;;;18.02;10.73;;;;;;;;;;5114671;28;20550;-77
2021/05/23 09:20:25;;;;;;;20.55;10.52;;;;;;;;;;5116279;28;20043;-77
2021/05/23 09:22:53;;;;;;;19.48;10.77;;;;;;;;;;5096260;28;20036;-76
2021/05/23 09:25:36;;;;;;;20.33;10.55;;;;;;;;;;5094969;28;20482;-77
2021/05/23 09:28:03;;;;;;;22.00;10.70;;;;;;;;;;5094459;28;20044;-78
2021/05/23 09:30:31;;;;;;;18.42;11.52;;;;;;;;;;5095859;28;20444;-77
2021/05/23 09:32:58;;;;;;;16.13;10.48;;;;;;;;;;5112769;28;20048;-77
2021/05/23 09:35:29;;;;;;;18.90;11.75;;;;;;;;;;5116054;28;20058;-76
2021/05/23 09:38:05;;;;;;;13.93;9.45;;;;;;;;;;5113591;28;20544;-77
2021/05/23 09:40:36;;;;;;;17.85;8.65;;;;;;;;;;5136090;27;20058;-76
2021/05/23 09:43:04;;;;;;;12.23;7.70;;;;;;;;;;5147529;27;20055;-77
2021/05/23 09:45:44;;;;;;;13.38;9.07;;;;;;;;;;5148792;27;20168;-77
2021/05/23 09:48:22;;;;;;;16.05;9.23;;;;;;;;;;5145118;27;20050;-77
2021/05/23 09:50:50;;;;;;;16.35;10.15;;;;;;;;;;5148150;27;20118;-77
2021/05/23 09:53:26;;;;;;;24.83;11.82;;;;;;;;;;5096512;28;20044;-78
2021/05/23 09:55:57;;;;;;;23.70;12.20;;;;;;;;;;5128391;27;20399;-78
2021/05/23 09:58:25;;;;;;;23.17;12.30;;;;;;;;;;5098309;28;20032;-78
2021/05/23 10:00:51;;;;;;;18.42;10.52;;;;;;;;;;5113755;28;20097;-77
2021/05/23 10:03:30;;;;;;;15.52;9.50;;;;;;;;;;5130367;27;20126;-78
2021/05/23 10:05:57;;;;;;;15.45;9.18;;;;;;;;;;5094874;28;20051;-77
2021/05/23 10:08:24;;;;;;;19.35;10.35;;;;;;;;;;5146080;27;20044;-77
2021/05/23 10:10:51;;;;;;;17.00;11.43;;;;;;;;;;5113801;28;20039;-77
2021/05/23 10:13:18;;;;;;;17.50;11.80;;;;;;;;;;5112375;28;20070;-77
2021/05/23 10:15:44;;;;;;;25.20;14.65;;;;;;;;;;5113977;28;20048;-77
2021/05/23 10:18:10;;;;;;;18.88;12.80;;;;;;;;;;5103316;28;20061;-77
2021/05/23 10:20:37;;;;;;;24.77;15.30;;;;;;;;;;5105058;28;20090;-77
2021/05/23 10:23:12;;;;;;;25.85;16.45;;;;;;;;;;5121040;27;20399;-76
2021/05/23 10:25:45;;;;;;;15.85;13.27;;;;;;;;;;5112858;28;20031;-76
2021/05/23 10:28:12;;;;;;;13.73;10.38;;;;;;;;;;5107598;28;20039;-76
2021/05/23 10:30:46;;;;;;;16.63;10.30;;;;;;;;;;5113044;28;20049;-76
2021/05/23 10:33:12;;;;;;;;;;;;;;;;;;5102030;28;20449;-76
2021/05/23 10:35:41;;;;;;;5.90;5.20;;;;;;;;;;5093989;28;19920;-76
2021/05/23 10:38:09;;;;;;;8.70;5.72;;;;;;;;;;5098686;28;20127;-77
2021/05/23 10:40:37;;;;;;;9.68;5.72;;;;;;;;;;5094364;28;20044;-76
2021/05/23 10:43:04;;;;;;;9.10;6.30;;;;;;;;;;5094776;28;20109;-77
2021/05/23 10:45:35;;;;;;;14.00;7.72;;;;;;;;;;5093869;28;20047;-76
2021/05/23 10:48:12;;;;;;;9.18;6.15;;;;;;;;;;5134712;27;20067;-76
2021/05/23 10:50:39;;;;;;;8.95;7.90;;;;;;;;;;5114626;28;20080;-76
2021/05/23 10:53:06;;;;;;;6.07;5.00;;;;;;;;;;5103438;28;20067;-76
2021/05/23 10:55:33;;;;;;;4.45;4.00;;;;;;;;;;5128096;27;20043;-76
2021/05/23 10:57:59;;;;;;;5.18;3.67;;;;;;;;;;5134711;27;20059;-76
2021/05/23 11:00:27;;;;;;;3.92;3.45;;;;;;;;;;5146377;27;20362;-76
2021/05/23 11:02:54;;;;;;;3.45;3.05;;;;;;;;;;5147247;27;20393;-76
2021/05/23 11:05:30;;;;;;;3.58;3.25;;;;;;;;;;5111557;27;20050;-76
2021/05/23 11:07:58;;;;;;;4.30;3.72;;;;;;;;;;5130537;27;20044;-76
2021/05/23 11:10:25;;;;;;;4.07;3.33;;;;;;;;;;5112316;28;20142;-76
2021/05/23 11:12:52;;;;;;;3.60;3.30;;;;;;;;;;5112114;28;20071;-76
2021/05/23 11:15:19;;;;;;;7.22;4.57;;;;;;;;;;5129411;27;20444;-76
2021/05/23 11:17:48;;;;;;;4.57;3.95;;;;;;;;;;5141868;27;20039;-77
2021/05/23 11:20:18;;;;;;;5.88;4.93;;;;;;;;;;5092489;28;20059;-76
2021/05/23 11:22:46;;;;;;;5.28;4.35;;;;;;;;;;5126284;27;20086;-77
2021/05/23 11:25:17;;;;;;;5.03;4.20;;;;;;;;;;5139652;27;20040;-77
2021/05/23 11:27:54;;;;;;;4.57;4.18;;;;;;;;;;5104501;28;20475;-76
2021/05/23 11:30:20;;;;;;;5.18;4.65;;;;;;;;;;5091997;28;20048;-77
2021/05/23 11:32:46;;;;;;;4.70;4.20;;;;;;;;;;5092883;28;20043;-77
2021/05/23 11:35:22;;;;;;;4.45;4.10;;;;;;;;;;5091732;28;20442;-77
2021/05/23 11:37:52;;;;;;;4.97;4.13;;;;;;;;;;5108901;28;20408;-77
2021/05/23 11:40:18;;;;;;;5.72;5.22;;;;;;;;;;5110844;28;20399;-77
2021/05/23 11:42:45;;;;;;;5.05;4.65;;;;;;;;;;5100250;28;20384;-77
2021/05/23 11:45:21;;;;;;;5.07;4.65;;;;;;;;;;5134669;27;20054;-77
2021/05/23 11:47:50;;;;;;;5.00;4.60;;;;;;;;;;5092875;28;20043;-77
2021/05/23 11:50:29;;;;;;;5.07;4.68;;;;;;;;;;5109337;28;20071;-77
2021/05/23 11:52:57;;;;;;;4.57;4.18;;;;;;;;;;5133784;27;20048;-77
2021/05/23 11:55:25;;;;;;;5.43;4.57;;;;;;;;;;5108991;28;20428;-77
2021/05/23 11:57:51;;;;;;;4.50;4.13;;;;;;;;;;5113133;28;20032;-77
2021/05/23 12:00:22;;;;;;;5.00;4.60;;;;;;;;;;5128903;27;20044;-77
2021/05/23 12:03:00;;;;;;;5.13;4.60;;;;;;;;;;5092476;28;20101;-77
2021/05/23 12:05:43;;;;;;;5.65;5.00;;;;;;;;;;5097386;28;20039;-77
2021/05/23 12:08:22;;;;;;;6.30;5.70;;;;;;;;;;5094038;28;20130;-77
2021/05/23 12:11:01;;;;;;;6.47;5.70;;;;;;;;;;5145438;27;20042;-76
2021/05/23 12:13:37;;;;;;;6.25;4.38;;;;;;;;;;5111993;28;20051;-76
2021/05/23 12:16:03;;;;;;;5.35;4.95;;;;;;;;;;5111285;28;20039;-76
2021/05/23 12:18:38;;;;;;;4.65;4.22;;;;;;;;;;5128648;27;20032;-77
2021/05/23 12:21:05;;;;;;;3.60;3.30;;;;;;;;;;5101888;28;20046;-76
2021/05/23 12:23:32;;;;;;;3.67;3.38;;;;;;;;;;5111329;28;20032;-76
2021/05/23 12:25:59;;;;;;;3.97;3.22;;;;;;;;;;5138564;27;20040;-76
2021/05/23 12:28:39;;;;;;;3.60;3.30;;;;;;;;;;5124129;27;20068;-76
2021/05/23 12:31:06;;;;;;;4.35;2.95;;;;;;;;;;5104527;28;20039;-76
2021/05/23 12:33:33;;;;;;;4.75;3.50;;;;;;;;;;5124445;27;20122;-77
2021/05/23 12:36:06;;;;;;;3.72;3.38;;;;;;;;;;5095609;28;20044;-77
2021/05/23 12:38:33;;;;;;;3.22;3.00;;;;;;;;;;5091138;28;20244;-76
2021/05/23 12:40:59;;;;;;;8.55;5.45;;;;;;;;;;5134344;27;20118;-76
2021/05/23 12:43:34;;;;;;;7.15;5.40;;;;;;;;;;5144284;27;20470;-75
2021/05/23 12:46:00;;;;;;;;;;;;;;;;;;5140613;27;20036;-76
2021/05/23 12:48:30;;;;;;;8.43;5.82;;;;;;;;;;5111438;28;19920;-75
2021/05/23 12:50:56;;;;;;;7.13;4.55;;;;;;;;;;5130098;27;20043;-76
2021/05/23 12:53:30;;;;;;;7.22;5.28;;;;;;;;;;5133525;27;20048;-75
2021/05/23 12:55:56;;;;;;;;;;;;;;;;;;5113556;28;20051;-75
2021/05/23 12:58:23;;;;;;;5.32;4.43;;;;;;;;;;5094531;28;19946;-76
2021/05/23 13:00:50;;;;;;;5.53;4.53;;;;;;;;;;5096891;28;20043;-76
2021/05/23 13:03:17;;;;;;;6.15;5.50;;;;;;;;;;5107808;28;20039;-75
2021/05/23 13:05:59;;;;;;;6.70;4.68;;;;;;;;;;5128988;27;20101;-75
2021/05/23 13:08:32;;;;;;;5.95;4.40;;;;;;;;;;5148201;27;20431;-75
2021/05/23 13:11:00;;;;;;;5.25;4.30;;;;;;;;;;5134161;27;20043;-76
2021/05/23 13:13:26;;;;;;;5.72;4.07;;;;;;;;;;5115523;28;20035;-75
2021/05/23 13:16:02;;;;;;;6.68;4.45;;;;;;;;;;5100177;28;20379;-75
2021/05/23 13:18:29;;;;;;;5.22;4.30;;;;;;;;;;5104509;28;20082;-75
2021/05/23 13:20:55;;;;;;;6.25;5.20;;;;;;;;;;5128481;27;20047;-75
2021/05/23 13:23:21;;;;;;;5.57;5.03;;;;;;;;;;5142596;27;20046;-76
2021/05/23 13:25:47;;;;;;;3.85;3.17;;;;;;;;;;5112740;28;20044;-75
2021/05/23 13:28:13;;;;;;;4.03;2.83;;;;;;;;;;5096792;28;20289;-75
2021/05/23 13:30:40;;;;;;;3.45;3.15;;;;;;;;;;5110433;28;20626;-75
2021/05/23 13:33:06;;;;;;;3.30;2.75;;;;;;;;;;5111453;27;20391;-75
2021/05/23 13:35:32;;;;;;;5.00;2.45;;;;;;;;;;5094060;28;20479;-75
2021/05/23 13:37:58;;;;;;;3.20;2.60;;;;;;;;;;5140868;27;20115;-76
2021/05/23 13:40:24;;;;;;;5.00;2.90;;;;;;;;;;5106817;28;20379;-75
2021/05/23 13:42:51;;;;;;;2.22;2.03;;;;;;;;;;5102470;28;20036;-76
2021/05/23 13:45:18;;;;;;;3.60;2.50;;;;;;;;;;5095282;28;20157;-75
2021/05/23 13:47:46;;;;;;;3.22;2.10;;;;;;;;;;5105266;28;20039;-76
2021/05/23 13:50:15;;;;;;;3.78;2.42;;;;;;;;;;5148670;27;20039;-76
2021/05/23 13:52:41;;;;;;;4.20;2.17;;;;;;;;;;5104150;28;20093;-75
2021/05/23 13:55:07;;;;;;;3.13;2.25;;;;;;;;;;5095181;28;20044;-76
2021/05/23 13:57:34;;;;;;;4.40;1.95;;;;;;;;;;5094304;28;20489;-76
2021/05/23 14:00:00;;;;;;;2.85;2.03;;;;;;;;;;5095106;28;20039;-76
2021/05/23 14:02:26;;;;;;;4.80;2.15;;;;;;;;;;5133277;27;20058;-76
2021/05/23 14:04:52;;;;;;;3.80;2.42;;;;;;;;;;5101370;28;20067;-76
2021/05/23 14:07:20;;;;;;;3.75;2.22;;;;;;;;;;5127747;27;20097;-76
2021/05/23 14:09:46;;;;;;;3.42;2.20;;;;;;;;;;5094051;28;20127;-76
2021/05/23 14:12:12;;;;;;;4.50;2.58;;;;;;;;;;5093648;28;20478;-76
2021/05/23 14:14:38;;;;;;;6.13;2.83;;;;;;;;;;5126655;27;20097;-76
2021/05/23 14:17:05;;;;;;;3.75;2.70;;;;;;;;;;5144474;27;20108;-76
2021/05/23 14:19:31;;;;;;;7.32;3.28;;;;;;;;;;5113309;28;20081;-76
2021/05/23 14:21:57;;;;;;;7.80;3.00;;;;;;;;;;5114227;28;20051;-76
2021/05/23 14:24:23;;;;;;;4.28;2.58;;;;;;;;;;5093957;28;20042;-76
2021/05/23 14:26:52;;;;;;;7.72;2.83;;;;;;;;;;5094530;28;20101;-75
2021/05/23 14:29:21;;;;;;;5.97;3.22;;;;;;;;;;5113678;28;20067;-76
2021/05/23 14:31:48;;;;;;;8.43;3.65;;;;;;;;;;5128657;27;20048;-76
2021/05/23 14:34:15;;;;;;;11.05;3.38;;;;;;;;;;5145641;27;20044;-76
2021/05/23 14:36:41;;;;;;;6.15;3.13;;;;;;;;;;5139979;27;20075;-76
2021/05/23 14:39:09;;;;;;;10.63;3.67;;;;;;;;;;5099181;28;20044;-76
2021/05/23 14:41:35;;;;;;;8.25;2.08;;;;;;;;;;5128411;27;20047;-75
2021/05/23 14:44:01;;;;;;;5.13;1.70;;;;;;;;;;5124910;27;20407;-76
2021/05/23 14:46:28;;;;;;;6.90;1.80;;;;;;;;;;5113609;28;20428;-76
2021/05/23 14:48:54;;;;;;;8.95;1.40;;;;;;;;;;5133695;27;20044;-76